createdAt,value
2018-02-19T00:01:31.421Z,74.47
2018-02-19T00:03:57.266Z,74.74
2018-02-19T00:06:26.496Z,75.40
2018-02-19T00:08:52.386Z,76.20
2018-02-19T00:11:22.117Z,75.24
2018-02-19T00:13:47.968Z,75.14
2018-02-19T00:16:15.271Z,75.17
2018-02-19T00:18:41.117Z,76.05
2018-02-19T00:21:10.529Z,75.92
2018-02-19T00:23:36.425Z,75.99
2018-02-19T00:26:05.664Z,76.56
2018-02-19T00:28:31.502Z,76.18
2018-02-19T00:30:59.065Z,74.95
2018-02-19T00:33:24.888Z,76.02
2018-02-19T00:35:50.715Z,76.51
2018-02-19T00:38:16.571Z,76.53
2018-02-19T00:40:42.397Z,77.04
2018-02-19T00:43:11.289Z,77.03
2018-02-19T00:45:37.174Z,76.71
2018-02-19T00:48:06.144Z,76.16
2018-02-19T00:50:32.014Z,76.25
2018-02-19T00:53:01.180Z,76.21
2018-02-19T00:55:27.028Z,76.24
2018-02-19T00:57:56.404Z,77.16
2018-02-19T01:00:22.258Z,77.03
2018-02-19T01:02:49.643Z,76.86
2018-02-19T01:05:15.480Z,76.86
2018-02-19T01:07:44.285Z,76.59
2018-02-19T01:10:10.166Z,76.93
2018-02-19T01:12:36.012Z,76.01
2018-02-19T01:15:01.865Z,75.89
2018-02-19T01:17:27.735Z,74.29
2018-02-19T01:19:56.692Z,73.97
2018-02-19T01:22:22.584Z,73.68
2018-02-19T01:24:51.940Z,75.23
2018-02-19T01:27:17.811Z,75.25
2018-02-19T01:29:47.090Z,75.19
2018-02-19T01:32:12.954Z,75.14
2018-02-19T01:34:40.387Z,74.37
2018-02-19T01:37:06.220Z,75.50
2018-02-19T01:39:35.499Z,75.66
2018-02-19T01:42:01.361Z,76.29
2018-02-19T01:44:31.021Z,76.41
2018-02-19T01:46:56.875Z,77.10
2018-02-19T01:49:22.742Z,77.56
2018-02-19T01:51:48.599Z,78.19
2018-02-19T01:54:14.441Z,78.12
2018-02-19T01:56:41.150Z,77.18
2018-02-19T01:59:07.021Z,76.78
2018-02-19T02:01:35.657Z,75.89
2018-02-19T02:04:01.510Z,76.68
2018-02-19T02:08:58.378Z,76.33
2018-02-19T02:11:25.977Z,76.29
2018-02-19T02:13:51.814Z,76.30
2018-02-19T02:16:20.893Z,75.65
2018-02-19T02:18:46.733Z,75.25
2018-02-19T02:21:16.110Z,74.58
2018-02-19T02:23:41.988Z,74.27
2018-02-19T02:26:07.835Z,75.89
2018-02-19T02:28:33.690Z,76.38
2018-02-19T02:30:59.502Z,78.41
2018-02-19T02:33:26.699Z,79.38
2018-02-19T02:35:52.573Z,79.67
2018-02-19T02:38:21.874Z,80.35
2018-02-19T02:40:47.756Z,81.08
2018-02-19T02:43:17.094Z,81.59
2018-02-19T02:45:42.938Z,82.14
2018-02-19T02:48:12.310Z,82.79
2018-02-19T02:50:38.159Z,82.89
2018-02-19T02:53:07.658Z,82.43
2018-02-19T02:55:33.495Z,81.70
2018-02-19T02:58:00.727Z,81.05
2018-02-19T03:00:26.607Z,80.65
2018-02-19T03:02:52.529Z,80.48
2018-02-19T03:05:18.355Z,79.82
2018-02-19T03:07:44.173Z,78.99
2018-02-19T03:10:11.888Z,79.63
2018-02-19T03:12:37.749Z,79.87
2018-02-19T03:15:06.490Z,80.51
2018-02-19T03:17:32.336Z,80.31
2018-02-19T03:20:00.952Z,79.77
2018-02-19T03:22:26.854Z,79.73
2018-02-19T03:27:23.567Z,79.27
2018-02-19T03:29:51.227Z,79.88
2018-02-19T03:32:17.092Z,79.75
2018-02-19T03:34:46.598Z,79.60
2018-02-19T03:37:12.476Z,80.02
2018-02-19T03:39:38.322Z,80.38
2018-02-19T03:42:04.168Z,79.83
2018-02-19T03:44:30.031Z,80.13
2018-02-19T03:46:57.563Z,81.07
2018-02-19T03:49:23.422Z,81.09
2018-02-19T03:51:52.761Z,80.05
2018-02-19T03:54:18.615Z,78.14
2018-02-19T03:56:47.841Z,79.24
2018-02-19T03:59:13.668Z,80.47
2018-02-19T04:01:42.831Z,81.49
2018-02-19T04:04:08.689Z,82.08
2018-02-19T04:06:36.092Z,82.00
2018-02-19T04:09:01.972Z,81.02
2018-02-19T04:11:30.729Z,80.62
2018-02-19T04:13:56.566Z,80.04
2018-02-19T04:16:22.415Z,79.12
2018-02-19T04:18:48.334Z,78.49
2018-02-19T04:21:14.161Z,79.28
2018-02-19T04:23:43.586Z,78.90
2018-02-19T04:26:09.422Z,78.69
2018-02-19T04:28:38.842Z,77.39
2018-02-19T04:31:04.708Z,76.70
2018-02-19T04:33:31.861Z,76.85
2018-02-19T04:35:57.701Z,76.75
2018-02-19T04:40:54.426Z,78.66
2018-02-19T04:43:21.988Z,79.24
2018-02-19T04:45:53.897Z,79.80
2018-02-19T04:48:20.102Z,80.65
2018-02-19T04:50:45.994Z,80.00
2018-02-19T04:53:11.834Z,79.73
2018-02-19T04:55:37.698Z,79.38
2018-02-19T04:58:03.560Z,78.79
2018-02-19T05:00:29.398Z,79.07
2018-02-19T05:02:55.275Z,78.47
2018-02-19T05:05:22.621Z,79.00
2018-02-19T05:07:48.477Z,79.32
2018-02-19T05:12:45.212Z,79.82
2018-02-19T05:15:12.021Z,79.71
2018-02-19T05:17:37.877Z,80.66
2018-02-19T05:20:07.076Z,81.36
2018-02-19T05:22:32.919Z,81.35
2018-02-19T05:25:02.708Z,81.35
2018-02-19T05:27:28.529Z,81.56
2018-02-19T05:29:55.296Z,80.59
2018-02-19T05:32:21.130Z,80.28
2018-02-19T05:34:47.006Z,79.04
2018-02-19T05:37:13.659Z,78.76
2018-02-19T05:39:39.570Z,79.28
2018-02-19T05:42:08.739Z,79.11
2018-02-19T05:44:34.619Z,78.65
2018-02-19T05:47:04.008Z,77.73
2018-02-19T05:49:29.858Z,77.70
2018-02-19T05:51:58.989Z,77.72
2018-02-19T05:54:24.854Z,76.86
2018-02-19T05:56:52.106Z,78.09
2018-02-19T05:59:17.968Z,78.65
2018-02-19T06:01:46.761Z,78.35
2018-02-19T06:04:12.626Z,78.00
2018-02-19T06:06:38.461Z,77.68
2018-02-19T06:09:04.327Z,77.61
2018-02-19T06:11:30.205Z,77.47
2018-02-19T06:13:59.474Z,76.98
2018-02-19T06:16:25.307Z,77.15
2018-02-19T06:18:54.778Z,77.66
2018-02-19T06:21:20.625Z,77.29
2018-02-19T06:23:48.024Z,76.34
2018-02-19T06:26:13.889Z,76.00
2018-02-19T06:28:43.404Z,76.05
2018-02-19T06:31:09.271Z,76.51
2018-02-19T06:33:38.790Z,76.58
2018-02-19T06:36:04.657Z,77.00
2018-02-19T06:38:32.350Z,77.36
2018-02-19T06:40:58.220Z,77.23
2018-02-19T06:43:24.079Z,76.92
2018-02-19T06:45:49.905Z,76.85
2018-02-19T06:48:15.732Z,76.63
2018-02-19T06:50:45.004Z,76.11
2018-02-19T06:53:10.836Z,75.45
2018-02-19T06:55:38.455Z,75.77
2018-02-19T06:58:04.317Z,76.09
2018-02-19T07:00:33.337Z,75.29
2018-02-19T07:02:59.165Z,74.74
2018-02-19T07:05:27.877Z,74.79
2018-02-19T07:07:53.725Z,74.55
2018-02-19T07:10:23.085Z,73.93
2018-02-19T07:12:48.983Z,74.79
2018-02-19T07:15:18.392Z,74.84
2018-02-19T07:17:44.241Z,75.12
2018-02-19T07:20:10.080Z,75.73
2018-02-19T07:22:35.935Z,75.05
2018-02-19T07:25:01.874Z,75.93
2018-02-19T07:27:29.362Z,76.57
2018-02-19T07:29:55.192Z,77.25
2018-02-19T07:32:24.571Z,77.71
2018-02-19T07:34:50.415Z,78.91
2018-02-19T07:37:19.823Z,77.71
2018-02-19T07:39:45.670Z,77.58
2018-02-19T07:42:13.014Z,78.45
2018-02-19T07:44:38.840Z,78.06
2018-02-19T07:49:35.600Z,76.07
2018-02-19T07:52:04.489Z,76.68
2018-02-19T07:54:30.330Z,76.53
2018-02-19T07:56:56.190Z,76.56
2018-02-19T07:59:22.034Z,76.73
2018-02-19T08:01:47.909Z,78.35
2018-02-19T08:04:14.480Z,77.52
2018-02-19T08:06:40.337Z,77.15
2018-02-19T08:09:09.087Z,75.95
2018-02-19T08:11:34.979Z,74.72
2018-02-19T08:14:03.856Z,74.58
2018-02-19T08:16:29.717Z,73.16
2018-02-19T08:18:58.525Z,73.24
2018-02-19T08:21:24.388Z,73.05
2018-02-19T08:23:53.719Z,73.04
2018-02-19T08:26:19.545Z,71.88
2018-02-19T08:28:49.424Z,71.76
2018-02-19T08:31:15.272Z,69.08
2018-02-19T08:33:41.128Z,70.52
2018-02-19T08:36:07.010Z,72.00
2018-02-19T08:38:32.858Z,72.74
2018-02-19T08:41:00.241Z,73.13
2018-02-19T08:43:26.111Z,73.93
2018-02-19T08:45:55.350Z,73.80
2018-02-19T08:48:21.897Z,72.92
2018-02-19T08:50:49.509Z,70.79
2018-02-19T08:53:15.392Z,72.02
2018-02-19T08:55:44.727Z,71.10
2018-02-19T08:58:10.570Z,70.52
2018-02-19T09:00:40.303Z,70.45
2018-02-19T09:03:06.192Z,70.62
2018-02-19T09:05:33.483Z,69.78
2018-02-19T09:07:59.324Z,68.87
2018-02-19T09:10:25.176Z,69.37
2018-02-19T09:12:51.007Z,68.91
2018-02-19T09:15:16.869Z,68.37
2018-02-19T09:17:46.592Z,68.69
2018-02-19T09:20:12.425Z,68.51
2018-02-19T09:22:39.534Z,68.29
2018-02-19T09:25:05.404Z,67.52
2018-02-19T09:27:34.026Z,67.45
2018-02-19T09:29:59.873Z,68.18
2018-02-19T09:32:29.159Z,68.46
2018-02-19T09:34:55.003Z,68.98
2018-02-19T09:37:23.715Z,69.18
2018-02-19T09:39:49.593Z,68.95
2018-02-19T09:44:46.358Z,68.29
2018-02-19T09:47:12.206Z,67.07
2018-02-19T09:49:38.050Z,67.08
2018-02-19T09:52:03.899Z,67.49
2018-02-19T09:54:30.357Z,67.53
2018-02-19T09:56:56.205Z,67.03
2018-02-19T09:59:24.940Z,66.80
2018-02-19T10:01:50.815Z,67.29
2018-02-19T10:04:31.589Z,67.37
2018-02-19T10:06:57.458Z,68.11
2018-02-19T10:09:23.300Z,67.73
2018-02-19T10:11:49.171Z,67.00
2018-02-19T10:14:15.018Z,65.70
2018-02-19T10:16:40.873Z,65.99
2018-02-19T10:19:06.735Z,65.41
2018-02-19T10:21:32.582Z,64.94
2018-02-19T10:23:58.450Z,65.09
2018-02-19T10:26:24.287Z,64.55
2018-02-19T10:28:50.248Z,66.01
2018-02-19T10:31:16.085Z,66.23
2018-02-19T10:33:41.932Z,65.17
2018-02-19T10:36:11.493Z,65.78
2018-02-19T10:38:37.352Z,65.96
2018-02-19T10:41:06.488Z,65.32
2018-02-19T10:43:32.362Z,66.05
2018-02-19T10:45:59.804Z,65.80
2018-02-19T10:48:27.413Z,66.31
2018-02-19T10:50:55.034Z,66.30
2018-02-19T10:53:20.888Z,65.72
2018-02-19T10:55:50.129Z,66.93
2018-02-19T10:58:15.998Z,66.46
2018-02-19T11:00:44.673Z,66.34
2018-02-19T11:03:10.568Z,66.50
2018-02-19T11:05:36.447Z,66.42
2018-02-19T11:08:02.296Z,66.03
2018-02-19T11:10:28.176Z,65.35
2018-02-19T11:12:56.009Z,64.95
2018-02-19T11:15:21.886Z,65.71
2018-02-19T11:17:51.098Z,66.61
2018-02-19T11:20:16.954Z,66.28
2018-02-19T11:22:45.976Z,65.92
2018-02-19T11:25:11.821Z,66.23
2018-02-19T11:27:40.978Z,66.57
2018-02-19T11:30:06.871Z,67.80
2018-02-19T11:32:35.958Z,67.66
2018-02-19T11:35:01.829Z,67.13
2018-02-19T11:37:27.649Z,67.05
2018-02-19T11:39:53.501Z,66.92
2018-02-19T11:42:19.347Z,67.28
2018-02-19T11:44:45.979Z,67.29
2018-02-19T11:47:11.838Z,66.83
2018-02-19T11:52:08.605Z,66.29
2018-02-19T11:54:37.636Z,65.98
2018-02-19T11:57:03.510Z,64.92
2018-02-19T11:59:30.678Z,65.65
2018-02-19T12:01:56.544Z,65.06
2018-02-19T12:04:25.828Z,64.61
2018-02-19T12:06:51.680Z,65.50
2018-02-19T12:09:20.985Z,64.79
2018-02-19T12:11:46.846Z,64.20
2018-02-19T12:14:12.710Z,65.47
2018-02-19T12:16:38.597Z,65.31
2018-02-19T12:19:04.446Z,65.14
2018-02-19T12:21:31.877Z,65.12
2018-02-19T12:23:57.757Z,64.69
2018-02-19T12:26:27.160Z,64.31
2018-02-19T12:28:53.045Z,64.77
2018-02-19T12:31:20.713Z,65.18
2018-02-19T12:33:46.559Z,64.85
2018-02-19T12:38:43.356Z,64.25
2018-02-19T12:41:10.958Z,64.24
2018-02-19T12:43:36.789Z,63.79
2018-02-19T12:46:06.196Z,64.68
2018-02-19T12:48:32.572Z,65.19
2018-02-19T12:50:58.433Z,64.50
2018-02-19T12:53:24.280Z,64.44
2018-02-19T12:55:50.140Z,64.99
2018-02-19T12:58:17.361Z,64.95
2018-02-19T13:00:43.236Z,65.49
2018-02-19T13:03:12.734Z,64.21
2018-02-19T13:05:38.563Z,65.03
2018-02-19T13:08:07.556Z,65.20
2018-02-19T13:10:33.449Z,66.36
2018-02-19T13:13:00.917Z,66.75
2018-02-19T13:15:26.750Z,66.18
2018-02-19T13:17:55.568Z,65.71
2018-02-19T13:20:21.503Z,65.54
2018-02-19T13:22:50.333Z,65.43
2018-02-19T13:25:16.186Z,66.14
2018-02-19T13:27:42.048Z,65.72
2018-02-19T13:30:07.904Z,66.26
2018-02-19T13:32:33.771Z,65.79
2018-02-19T13:35:03.392Z,65.77
2018-02-19T13:37:29.258Z,65.74
2018-02-19T13:39:56.860Z,66.01
2018-02-19T13:42:22.775Z,65.41
2018-02-19T13:44:51.968Z,65.26
2018-02-19T13:47:17.853Z,65.31
2018-02-19T13:49:47.566Z,64.54
2018-02-19T13:52:13.619Z,64.36
2018-02-19T13:54:42.702Z,64.32
2018-02-19T13:57:08.534Z,65.16
2018-02-19T13:59:36.391Z,64.88
2018-02-19T14:02:02.294Z,65.61
2018-02-19T14:04:28.128Z,65.63
2018-02-19T14:06:54.014Z,65.29
2018-02-19T14:09:19.891Z,65.36
2018-02-19T14:11:48.941Z,65.81
2018-02-19T14:14:14.811Z,65.38
2018-02-19T14:16:42.179Z,65.25
2018-02-19T14:19:08.041Z,65.10
2018-02-19T14:21:37.390Z,64.97
2018-02-19T14:24:03.287Z,64.84
2018-02-19T14:26:32.482Z,65.36
2018-02-19T14:28:58.335Z,65.23
2018-02-19T14:31:27.615Z,65.30
2018-02-19T14:33:53.460Z,64.35
2018-02-19T14:36:21.059Z,64.86
2018-02-19T14:38:46.906Z,65.45
2018-02-19T14:41:12.804Z,65.77
2018-02-19T14:43:38.654Z,65.14
2018-02-19T14:46:04.525Z,65.31
2018-02-19T14:48:33.482Z,65.82
2018-02-19T14:50:59.355Z,65.33
2018-02-19T14:53:28.320Z,66.21
2018-02-19T14:55:54.170Z,66.10
2018-02-19T14:58:21.954Z,66.56
2018-02-19T15:00:47.801Z,66.69
2018-02-19T15:05:44.374Z,67.96
2018-02-19T15:08:12.293Z,66.85
2018-02-19T15:10:38.173Z,66.91
2018-02-19T15:13:07.682Z,66.71
2018-02-19T15:15:33.569Z,66.45
2018-02-19T15:17:59.405Z,66.61
2018-02-19T15:20:26.165Z,66.11
2018-02-19T15:22:52.056Z,65.98
2018-02-19T15:25:17.928Z,66.11
2018-02-19T15:27:43.907Z,66.77
2018-02-19T15:32:42.059Z,66.73
2018-02-19T15:35:07.922Z,67.04
2018-02-19T15:37:33.769Z,66.84
2018-02-19T15:40:03.183Z,67.13
2018-02-19T15:42:29.028Z,67.50
2018-02-19T15:44:58.197Z,68.02
2018-02-19T15:47:24.083Z,69.10
2018-02-19T15:49:53.277Z,68.40
2018-02-19T15:52:19.147Z,68.22
2018-02-19T15:54:45.019Z,68.91
2018-02-19T15:57:10.892Z,68.41
2018-02-19T15:59:36.742Z,68.82
2018-02-19T16:02:03.529Z,68.99
2018-02-19T16:04:29.399Z,68.95
2018-02-19T16:06:58.250Z,68.58
2018-02-19T16:09:24.128Z,68.55
2018-02-19T16:11:52.838Z,68.48
2018-02-19T16:14:18.704Z,69.57
2018-02-19T16:16:47.911Z,69.87
2018-02-19T16:19:13.827Z,69.29
2018-02-19T16:24:15.384Z,69.99
2018-02-19T16:26:41.250Z,70.11
2018-02-19T16:29:07.072Z,69.74
2018-02-19T16:31:32.931Z,69.76
2018-02-19T16:33:58.782Z,70.04
2018-02-19T16:36:24.658Z,70.66
2018-02-19T16:38:50.514Z,71.60
2018-02-19T16:41:16.378Z,71.85
2018-02-19T16:43:44.024Z,71.49
2018-02-19T16:46:09.905Z,71.79
2018-02-19T16:48:41.326Z,71.81
2018-02-19T16:51:07.175Z,72.47
2018-02-19T16:53:33.055Z,72.02
2018-02-19T16:55:58.952Z,71.82
2018-02-19T16:58:28.210Z,71.66
2018-02-19T17:00:54.050Z,72.09
2018-02-19T17:03:23.353Z,72.29
2018-02-19T17:05:49.225Z,72.43
2018-02-19T17:08:15.254Z,73.08
2018-02-19T17:10:41.234Z,72.93
2018-02-19T17:13:07.074Z,73.17
2018-02-19T17:15:34.326Z,72.89
2018-02-19T17:18:00.179Z,73.16
2018-02-19T17:20:29.949Z,73.69
2018-02-19T17:22:55.827Z,73.74
2018-02-19T17:25:23.549Z,73.40
2018-02-19T17:27:49.446Z,73.36
2018-02-19T17:30:18.833Z,73.30
2018-02-19T17:32:44.748Z,73.56
2018-02-19T17:35:13.666Z,73.30
2018-02-19T17:37:39.524Z,74.00
2018-02-19T17:40:08.830Z,73.90
2018-02-19T17:42:34.929Z,74.00
2018-02-19T17:45:00.773Z,73.85
2018-02-19T17:47:26.630Z,73.91
2018-02-19T17:49:52.505Z,73.21
2018-02-19T17:52:19.610Z,73.60
2018-02-19T17:54:45.445Z,73.29
2018-02-19T17:57:14.855Z,72.99
2018-02-19T17:59:40.690Z,73.37
2018-02-19T18:02:10.130Z,73.69
2018-02-19T18:04:35.993Z,73.56
2018-02-19T18:07:05.098Z,73.33
2018-02-19T18:09:30.954Z,73.40
2018-02-19T18:11:58.360Z,73.80
2018-02-19T18:14:24.238Z,74.30
2018-02-19T18:16:52.889Z,74.46
2018-02-19T18:19:18.719Z,74.86
2018-02-19T18:21:44.718Z,74.85
2018-02-19T18:24:10.567Z,74.91
2018-02-19T18:26:36.412Z,75.32
2018-02-19T18:29:05.863Z,74.97
2018-02-19T18:31:32.098Z,75.29
2018-02-19T18:33:59.265Z,74.85
2018-02-19T18:36:25.199Z,74.87
2018-02-19T18:38:53.936Z,75.03
2018-02-19T18:41:19.905Z,75.31
2018-02-19T18:43:48.776Z,75.55
2018-02-19T18:46:14.718Z,75.60
2018-02-19T18:48:44.836Z,75.75
2018-02-19T18:51:10.723Z,75.93
2018-02-19T18:53:38.077Z,76.02
2018-02-19T18:56:03.970Z,75.62
2018-02-19T18:58:29.816Z,75.61
2018-02-19T19:00:55.645Z,75.32
2018-02-19T19:03:21.498Z,75.26
2018-02-19T19:05:51.008Z,75.45
2018-02-19T19:08:29.439Z,75.36
2018-02-19T19:10:55.320Z,75.43
2018-02-19T19:13:21.207Z,75.63
2018-02-19T19:15:47.093Z,75.91
2018-02-19T19:18:12.965Z,75.85
2018-02-19T19:20:38.818Z,75.64
2018-02-19T19:23:04.679Z,75.36
2018-02-19T19:25:30.532Z,75.75
2018-02-19T19:27:56.399Z,75.78
2018-02-19T19:30:23.766Z,75.52
2018-02-19T19:32:49.623Z,75.71
2018-02-19T19:35:15.493Z,75.59
2018-02-19T19:37:41.361Z,75.14
2018-02-19T19:40:07.226Z,75.64
2018-02-19T19:42:36.861Z,75.78
2018-02-19T19:45:02.719Z,75.80
2018-02-19T19:47:30.153Z,75.99
2018-02-19T19:49:55.980Z,76.08
2018-02-19T19:52:24.729Z,75.25
2018-02-19T19:54:50.608Z,75.65
2018-02-19T19:57:19.497Z,76.42
2018-02-19T19:59:45.366Z,76.53
2018-02-19T20:02:14.167Z,76.35
2018-02-19T20:04:40.051Z,76.23
2018-02-19T20:07:08.638Z,76.47
2018-02-19T20:09:34.489Z,76.25
2018-02-19T20:12:00.340Z,76.19
2018-02-19T20:14:26.187Z,75.96
2018-02-19T20:16:52.052Z,75.75
2018-02-19T20:19:20.932Z,75.98
2018-02-19T20:21:46.790Z,76.76
2018-02-19T20:24:15.965Z,76.93
2018-02-19T20:26:41.830Z,76.80
2018-02-19T20:29:11.022Z,76.59
2018-02-19T20:31:36.893Z,76.27
2018-02-19T20:34:06.137Z,75.92
2018-02-19T20:36:32.003Z,76.58
2018-02-19T20:39:01.002Z,76.52
2018-02-19T20:41:26.864Z,76.45
2018-02-19T20:43:56.078Z,75.82
2018-02-19T20:46:21.961Z,75.63
2018-02-19T20:48:47.826Z,75.82
2018-02-19T20:51:13.678Z,76.01
2018-02-19T20:53:39.549Z,76.12
2018-02-19T20:56:06.021Z,76.06
2018-02-19T20:58:31.888Z,75.85
2018-02-19T21:01:00.591Z,76.02
2018-02-19T21:03:26.456Z,76.06
2018-02-19T21:05:55.880Z,75.59
2018-02-19T21:08:21.731Z,75.96
2018-02-19T21:10:51.329Z,75.52
2018-02-19T21:13:17.152Z,75.80
2018-02-19T21:15:46.159Z,75.84
2018-02-19T21:18:12.004Z,75.99
2018-02-19T21:20:39.589Z,75.96
2018-02-19T21:23:05.443Z,76.43
2018-02-19T21:25:31.327Z,76.77
2018-02-19T21:27:57.185Z,76.91
2018-02-19T21:30:23.048Z,76.78
2018-02-19T21:32:52.422Z,77.72
2018-02-19T21:35:18.294Z,77.26
2018-02-19T21:37:45.774Z,77.08
2018-02-19T21:40:11.666Z,76.49
2018-02-19T21:42:40.494Z,76.39
2018-02-19T21:45:06.333Z,76.58
2018-02-19T21:47:35.227Z,76.88
2018-02-19T21:50:01.106Z,77.13
2018-02-19T21:52:30.378Z,77.20
2018-02-19T21:54:56.267Z,76.46
2018-02-19T21:57:26.007Z,76.04
2018-02-19T21:59:51.866Z,76.70
2018-02-19T22:02:17.708Z,77.74
2018-02-19T22:04:43.566Z,78.80
2018-02-19T22:07:09.398Z,79.21
2018-02-19T22:09:36.509Z,79.09
2018-02-19T22:12:02.346Z,78.80
2018-02-19T22:14:31.658Z,78.76
2018-02-19T22:16:57.539Z,78.82
2018-02-19T22:19:27.026Z,78.63
2018-02-19T22:21:52.910Z,78.60
2018-02-19T22:24:22.360Z,78.44
2018-02-19T22:26:48.214Z,77.68
2018-02-19T22:29:15.363Z,77.56
2018-02-19T22:31:41.217Z,77.73
2018-02-19T22:34:10.109Z,77.67
2018-02-19T22:36:35.970Z,77.66
2018-02-19T22:39:01.823Z,77.29
2018-02-19T22:41:27.702Z,77.08
2018-02-19T22:43:53.540Z,77.11
2018-02-19T22:46:22.897Z,77.25
2018-02-19T22:48:48.770Z,77.16
2018-02-19T22:51:17.970Z,77.51
2018-02-19T22:53:43.834Z,77.14
2018-02-19T22:56:11.205Z,77.39
2018-02-19T22:58:37.089Z,77.76
2018-02-19T23:01:06.452Z,77.30
2018-02-19T23:03:32.310Z,77.39
2018-02-19T23:06:01.626Z,77.85
2018-02-19T23:08:27.490Z,77.31
2018-02-19T23:10:56.628Z,77.46
2018-02-19T23:13:22.509Z,77.55
2018-02-19T23:15:48.358Z,77.78
2018-02-19T23:18:14.203Z,78.43
2018-02-19T23:20:40.075Z,78.20
2018-02-19T23:23:07.637Z,77.80
2018-02-19T23:25:33.503Z,78.34
2018-02-19T23:28:02.994Z,78.75
2018-02-19T23:30:28.878Z,78.58
2018-02-19T23:32:56.260Z,78.13
2018-02-19T23:35:22.140Z,77.48
2018-02-19T23:37:50.757Z,76.95
2018-02-19T23:40:16.633Z,77.02
2018-02-19T23:42:45.581Z,78.26
2018-02-19T23:45:11.413Z,78.74
2018-02-19T23:50:08.027Z,78.94
2018-02-19T23:52:33.896Z,78.73
2018-02-19T23:54:59.731Z,78.65
2018-02-19T23:57:25.579Z,78.65
2018-02-19T23:59:52.242Z,78.79
